Time;durP1;ratioP1;P1;durP2;ratioP2;P2;SDS_P1;SDS_P2;PMS_P1;PMS_P2;Temp;Humidity;BMP_temperature;BMP_pressure;BME280_temperature;BME280_humidity;BME280_pressure;Samples;Min_cycle;Max_cycle;Signal;HPM_P1;HPM_P2
2022/12/22 03:34:45;;;;;;;;;;;;;;;9.34;98.33;100398.66;20739808;28;19925;-67
2022/12/22 03:55:47;;;;;;;;;;;;;;;9.34;99.00;100375.44;20736001;28;19925;-68
2022/12/22 04:06:09;;;;;;;;;;;;;;;9.37;98.61;100370.16;20758116;28;19980;-67
2022/12/22 04:16:32;;;;;;;;;;;;;;;9.34;98.74;100354.78;20718087;28;20412;-68
2022/12/22 04:26:53;;;;;;;;;;;;;;;9.33;99.01;100350.47;20723584;28;20012;-67
2022/12/22 04:37:15;;;;;;;;;;;;;;;9.31;98.95;100347.97;20768093;28;19956;-69
2022/12/22 04:47:38;;;;;;;;;;;;;;;9.29;99.13;100347.16;20742366;28;19929;-68
2022/12/22 04:57:59;;;;;;;;;;;;;;;9.31;99.28;100347.09;20716398;28;19934;-68
2022/12/22 05:08:21;;;;;;;;;;;;;;;9.37;99.10;100334.84;20752685;28;19929;-67
2022/12/22 05:18:43;;;;;;;;;;;;;;;9.39;98.88;100327.06;20754168;28;19952;-66
2022/12/22 05:29:04;;;;;;;;;;;;;;;9.36;98.87;100316.84;20738583;28;19976;-68
2022/12/22 05:39:25;;;;;;;;;;;;;;;9.41;99.10;100307.19;20721543;28;19929;-66
2022/12/22 05:49:47;;;;;;;;;;;;;;;9.38;98.60;100310.72;20730316;28;19933;-67
2022/12/22 06:00:11;;;;;;;;;;;;;;;9.37;98.91;100311.63;20745750;28;19972;-66
2022/12/22 06:10:32;;;;;;;;;;;;;;;9.40;99.12;100308.06;20765653;28;19989;-64
2022/12/22 06:20:54;;;;;;;;;;;;;;;9.40;98.96;100315.81;20831592;28;19936;-66
2022/12/22 06:31:15;;;;;;;;;;;;;;;9.41;99.35;100307.19;20782272;28;20330;-66
2022/12/22 06:52:16;;;;;;;;;;;;;;;9.38;99.46;100302.13;20718084;28;19937;-66
2022/12/22 07:02:38;;;;;;;;;;;;;;;9.45;99.20;100329.44;20718188;28;19926;-67
2022/12/22 07:13:17;;;;;;;;;;;;;;;9.46;98.86;100344.03;20725892;28;19929;-67
2022/12/22 07:23:40;;;;;;;;;;;;;;;9.47;98.57;100368.97;20728547;28;19933;-67
2022/12/22 07:34:01;;;;;;;;;;;;;;;9.46;98.53;100377.59;20707549;28;19979;-66
2022/12/22 07:44:23;;;;;;;;;;;;;;;9.50;98.33;100379.19;20725623;28;19929;-67
2022/12/22 07:54:44;;;;;;;;;;;;;;;9.53;98.21;100369.59;20725825;28;19925;-67
2022/12/22 08:05:06;;;;;;;;;;;;;;;9.55;98.43;100372.13;20722601;28;19956;-67
2022/12/22 08:15:28;;;;;;;;;;;;;;;9.55;97.95;100372.13;20795025;22;19943;-78
2022/12/22 08:25:54;;;;;;;;;;;;;;;9.53;98.42;100353.25;20807147;28;20015;-79
2022/12/22 08:36:15;;;;;;;;;;;;;;;9.46;98.39;100357.78;20778676;28;19932;-78
2022/12/22 08:46:37;;;;;;;;;;;;;;;9.50;98.48;100374.03;20791679;28;19983;-78
2022/12/22 08:56:58;;;;;;;;;;;;;;;9.59;98.26;100387.50;20762360;28;19972;-77
2022/12/22 09:07:20;;;;;;;;;;;;;;;9.61;98.18;100402.94;20792532;28;19987;-77
2022/12/22 09:17:42;;;;;;;;;;;;;;;9.61;97.91;100421.00;20780998;28;19971;-77
2022/12/22 09:28:06;;;;;;;;;;;;;;;9.48;98.10;100430.03;20788463;28;20170;-78
2022/12/22 09:38:27;;;;;;;;;;;;;;;9.51;97.64;100430.78;20788073;28;19937;-77
2022/12/22 09:48:49;;;;;;;;;;;;;;;9.56;97.28;100438.41;20792075;28;20443;-77
2022/12/22 09:59:12;;;;;;;;;;;;;;;9.63;95.82;100442.47;20792774;28;19976;-77
2022/12/22 10:09:34;;;;;;;;;;;;;;;9.52;94.25;100441.97;20786646;28;19925;-79
2022/12/22 10:20:25;;;;;;;;;;;;;;;9.41;94.06;100456.97;20780958;28;19988;-77
2022/12/22 10:30:46;;;;;;;;;;;;;;;9.28;93.75;100461.66;20784087;28;19925;-76
2022/12/22 10:41:16;;;;;;;;;;;;;;;9.09;92.54;100453.63;20777444;28;19929;-77
2022/12/22 10:51:39;;;;;;;;;;;;;;;9.01;92.87;100463.31;20800810;28;19983;-77
2022/12/22 11:02:19;;;;;;;;;;;;;;;9.04;93.24;100472.72;20787112;28;19925;-77
2022/12/22 11:13:01;;;;;;;;;;;;;;;9.04;93.33;100483.91;20792212;28;19929;-76
2022/12/22 11:23:25;;;;;;;;;;;;;;;9.03;93.09;100477.03;20781045;28;19986;-77
2022/12/22 11:33:50;;;;;;;;;;;;;;;9.16;92.04;100492.16;20778844;28;20404;-77
2022/12/22 11:44:30;;;;;;;;;;;;;;;9.14;90.97;100511.09;20780864;28;19933;-77
2022/12/22 11:54:54;;;;;;;;;;;;;;;9.21;90.19;100516.91;20786075;28;19926;-78
2022/12/22 12:05:15;;;;;;;;;;;;;;;9.29;88.42;100514.97;20774646;28;20043;-77
2022/12/22 12:15:39;;;;;;;;;;;;;;;9.33;88.55;100532.06;20780313;28;19983;-78
2022/12/22 12:26:10;;;;;;;;;;;;;;;9.31;86.48;100533.00;20771834;28;20426;-77
2022/12/22 12:36:50;;;;;;;;;;;;;;;9.27;86.22;100537.41;20776040;28;19983;-80
2022/12/22 12:47:25;;;;;;;;;;;;;;;9.24;85.73;100534.06;20778077;28;20000;-78
2022/12/22 12:57:48;;;;;;;;;;;;;;;9.26;86.15;100529.72;20775583;28;19957;-77
2022/12/22 13:08:18;;;;;;;;;;;;;;;9.30;85.00;100534.75;20750321;28;19994;-73
2022/12/22 13:18:44;;;;;;;;;;;;;;;9.24;85.69;100534.06;20774017;28;19933;-73
2022/12/22 13:29:20;;;;;;;;;;;;;;;9.08;85.14;100565.47;20774955;28;20012;-74
2022/12/22 13:39:42;;;;;;;;;;;;;;;9.02;85.92;100557.94;20771740;28;20031;-74
2022/12/22 13:50:04;;;;;;;;;;;;;;;9.02;86.23;100567.41;20772762;28;20380;-75
2022/12/22 14:00:30;;;;;;;;;;;;;;;9.04;86.12;100565.63;20776984;28;19925;-75
2022/12/22 14:10:53;;;;;;;;;;;;;;;8.96;86.28;100578.72;20796073;28;19936;-75
2022/12/22 14:21:14;;;;;;;;;;;;;;;8.91;86.66;100572.88;20775595;28;19978;-75
2022/12/22 14:31:49;;;;;;;;;;;;;;;8.83;86.92;100577.38;20802282;28;19929;-74
2022/12/22 14:42:12;;;;;;;;;;;;;;;8.80;87.06;100579.19;20788367;28;19926;-74
2022/12/22 14:52:42;;;;;;;;;;;;;;;8.72;87.43;100600.03;20785733;28;19925;-76
2022/12/22 15:03:24;;;;;;;;;;;;;;;8.72;88.09;100599.16;20777117;28;19932;-71
2022/12/22 15:13:46;;;;;;;;;;;;;;;8.67;88.22;100601.88;20770889;28;19929;-74
2022/12/22 15:24:14;;;;;;;;;;;;;;;8.67;88.09;100595.88;20772487;28;19929;-73
2022/12/22 15:34:35;;;;;;;;;;;;;;;8.68;88.63;100603.56;20783801;28;19984;-74
2022/12/22 15:44:57;;;;;;;;;;;;;;;8.71;88.76;100600.94;20765597;28;20156;-74
2022/12/22 15:55:18;;;;;;;;;;;;;;;8.69;88.63;100610.44;20773757;28;20020;-73
2022/12/22 16:05:40;;;;;;;;;;;;;;;8.68;88.70;100608.72;20791522;28;19930;-73
2022/12/22 16:16:02;;;;;;;;;;;;;;;8.67;88.39;100607.03;20782646;28;20419;-75
2022/12/22 16:26:23;;;;;;;;;;;;;;;8.64;88.45;100612.28;20781031;28;19936;-74
2022/12/22 16:36:45;;;;;;;;;;;;;;;8.69;88.08;100594.97;20777548;28;19929;-73
2022/12/22 16:47:14;;;;;;;;;;;;;;;8.72;87.78;100600.03;20768502;28;19956;-75
2022/12/22 16:57:35;;;;;;;;;;;;;;;8.76;87.34;100606.81;20777256;28;20050;-73
2022/12/22 17:07:57;;;;;;;;;;;;;;;8.74;87.16;100593.09;20774973;28;19925;-75
2022/12/22 17:18:20;;;;;;;;;;;;;;;8.67;86.72;100598.44;20772623;28;19929;-76
2022/12/22 17:28:42;;;;;;;;;;;;;;;8.63;86.93;100577.06;20767667;28;20364;-76
2022/12/22 17:39:03;;;;;;;;;;;;;;;8.54;86.65;100568.72;20789749;28;19933;-77
2022/12/22 17:49:25;;;;;;;;;;;;;;;8.48;86.92;100574.88;20786061;28;19936;-76
2022/12/22 17:59:46;;;;;;;;;;;;;;;8.50;87.08;100557.63;20767336;28;21626;-75
2022/12/22 18:10:28;;;;;;;;;;;;;;;8.49;87.12;100550.78;20796479;28;20646;-74
2022/12/22 18:20:49;;;;;;;;;;;;;;;8.46;87.61;100545.69;20746704;28;20026;-74
2022/12/22 18:31:28;;;;;;;;;;;;;;;8.48;88.27;100538.75;20761211;28;19929;-73
2022/12/22 18:41:53;;;;;;;;;;;;;;;8.48;88.13;100537.94;20780145;28;19933;-74
2022/12/22 18:52:16;;;;;;;;;;;;;;;8.54;87.92;100523.16;20782747;28;19929;-76
2022/12/22 19:02:37;;;;;;;;;;;;;;;8.53;88.32;100516.31;20759879;28;20356;-76
2022/12/22 19:13:01;;;;;;;;;;;;;;;8.49;88.10;100501.81;20786470;28;20374;-74
2022/12/22 19:23:24;;;;;;;;;;;;;;;8.47;88.48;100500.13;20765534;28;19975;-73
2022/12/22 19:33:45;;;;;;;;;;;;;;;8.48;88.13;100492.34;20766993;28;19991;-75
2022/12/22 19:44:19;;;;;;;;;;;;;;;8.44;88.85;100485.59;20764757;28;19933;-75
2022/12/22 19:54:40;;;;;;;;;;;;;;;8.43;88.93;100478.75;20779928;28;19929;-75
2022/12/22 20:05:02;;;;;;;;;;;;;;;8.40;88.92;100471.13;20768056;28;20739;-74
2022/12/22 20:15:23;;;;;;;;;;;;;;;8.38;89.47;100460.00;20755850;23;20230;-66
2022/12/22 20:25:47;;;;;;;;;;;;;;;8.37;89.35;100457.47;20660165;28;20313;-61
2022/12/22 20:36:15;;;;;;;;;;;;;;;8.43;89.92;100465.88;20632908;28;19930;-61
2022/12/22 20:46:38;;;;;;;;;;;;;;;8.47;90.49;100451.16;20615306;28;19930;-61
2022/12/22 20:56:59;;;;;;;;;;;;;;;8.40;91.85;100427.28;20636853;28;19993;-62
2022/12/22 21:07:20;;;;;;;;;;;;;;;8.37;91.99;100422.19;20642471;28;20044;-61
2022/12/22 21:17:42;;;;;;;;;;;;;;;8.36;92.10;100417.09;20632762;28;20672;-61
2022/12/22 21:28:07;;;;;;;;;;;;;;;8.33;92.08;100420.63;20645741;28;19979;-61
2022/12/22 21:38:30;;;;;;;;;;;;;;;8.31;92.77;100404.34;20648455;28;19958;-61
2022/12/22 21:48:52;;;;;;;;;;;;;;;8.26;92.71;100395.88;20655195;28;19917;-61
2022/12/22 21:59:14;;;;;;;;;;;;;;;8.30;92.44;100399.22;20727717;28;19968;-60
2022/12/22 22:09:35;;;;;;;;;;;;;;;8.27;93.06;100400.16;20658384;28;19929;-60
2022/12/22 22:19:57;;;;;;;;;;;;;;;8.31;93.03;100376.00;20577272;28;1787345;-61
2022/12/22 22:30:19;;;;;;;;;;;;;;;8.30;93.25;100374.28;20626228;28;19974;-61
2022/12/22 22:40:42;;;;;;;;;;;;;;;8.35;93.76;100376.75;20640340;28;20342;-61
2022/12/22 22:51:03;;;;;;;;;;;;;;;8.39;93.74;100374.03;20679730;28;19918;-62
2022/12/22 23:01:25;;;;;;;;;;;;;;;8.41;93.95;100371.41;20700159;28;20032;-63
2022/12/22 23:11:46;;;;;;;;;;;;;;;8.41;93.81;100341.31;20624118;28;19969;-62
2022/12/22 23:22:07;;;;;;;;;;;;;;;8.34;93.64;100359.56;20638536;28;20330;-62
2022/12/22 23:32:29;;;;;;;;;;;;;;;8.31;94.44;100359.69;20632472;28;19926;-62
2022/12/22 23:42:50;;;;;;;;;;;;;;;8.32;95.23;100346.75;20612856;28;19952;-61
2022/12/22 23:53:17;;;;;;;;;;;;;;;8.35;94.77;100359.53;20628097;28;20356;-62
